Time;durP1;ratioP1;P1;durP2;ratioP2;P2;SDS_P1;SDS_P2;PMS_P1;PMS_P2;Temp;Humidity;BMP_temperature;BMP_pressure;BME280_temperature;BME280_humidity;BME280_pressure;Samples;Min_cycle;Max_cycle;Signal;HPM_P1;HPM_P2
2023/03/23 00:02:05;;;;;;;0.60;0.50;;;;;;;14.41;71.97;99417.94;4913760;29;20216;-50
2023/03/23 00:04:31;;;;;;;1.90;0.30;;;;;;;14.30;73.14;99415.03;4912557;28;20970;-50
2023/03/23 00:06:56;;;;;;;0.50;0.40;;;;;;;14.27;72.58;99410.72;4901346;28;20255;-49
2023/03/23 00:09:23;;;;;;;0.60;0.50;;;;;;;14.14;73.46;99412.38;4912780;29;20244;-49
2023/03/23 00:11:50;;;;;;;1.13;0.53;;;;;;;14.21;72.37;99403.91;4909159;28;20222;-52
2023/03/23 00:14:16;;;;;;;0.40;0.30;;;;;;;14.06;74.61;99407.47;4912388;29;20975;-50
2023/03/23 00:16:42;;;;;;;0.40;0.30;;;;;;;14.12;73.07;99398.25;4912436;28;20500;-49
2023/03/23 00:19:12;;;;;;;0.57;0.37;;;;;;;14.27;72.11;99399.19;4913742;29;20244;-50
2023/03/23 00:21:41;;;;;;;0.50;0.30;;;;;;;14.22;73.16;99391.41;4913870;29;20464;-49
2023/03/23 00:24:17;;;;;;;0.50;0.30;;;;;;;14.21;73.89;99389.69;4913719;28;20468;-49
2023/03/23 00:26:46;;;;;;;0.40;0.33;;;;;;;14.15;73.92;99390.06;4913799;29;20493;-50
2023/03/23 00:29:13;;;;;;;2.40;0.60;;;;;;;14.13;74.07;99402.66;4912905;29;21029;-50
2023/03/23 00:31:39;;;;;;;1.03;0.50;;;;;;;14.11;75.67;99393.81;4913596;28;20465;-49
2023/03/23 00:34:05;;;;;;;0.50;0.30;;;;;;;14.01;76.33;99388.16;4913460;29;20492;-49
2023/03/23 00:36:34;;;;;;;0.60;0.50;;;;;;;14.06;75.81;99388.75;4912175;29;20283;-50
2023/03/23 00:39:01;;;;;;;0.73;0.60;;;;;;;13.87;76.71;99380.09;4913273;29;20461;-50
2023/03/23 00:41:28;;;;;;;0.40;0.30;;;;;;;13.99;74.81;99375.84;4912057;29;20815;-50
2023/03/23 00:43:56;;;;;;;0.50;0.40;;;;;;;14.06;74.49;99372.72;4913585;29;20873;-50
2023/03/23 00:46:22;;;;;;;0.70;0.70;;;;;;;14.12;73.91;99371.53;4913501;28;20488;-50
2023/03/23 00:48:47;;;;;;;8.80;0.50;;;;;;;14.22;72.14;99378.91;4913256;28;20873;-50
2023/03/23 00:51:13;;;;;;;0.70;0.33;;;;;;;14.43;71.29;99374.13;4911983;28;20540;-50
2023/03/23 00:53:39;;;;;;;0.50;0.40;;;;;;;14.51;71.39;99373.69;4913098;28;20217;-49
2023/03/23 00:56:05;;;;;;;1.83;0.50;;;;;;;14.42;71.04;99363.53;4913486;29;20296;-50
2023/03/23 00:58:31;;;;;;;0.40;0.30;;;;;;;14.60;70.06;99381.16;4913460;28;20457;-50
2023/03/23 01:00:56;;;;;;;0.50;0.30;;;;;;;14.68;69.80;99381.59;4912810;29;20493;-49
2023/03/23 01:03:25;;;;;;;0.60;0.60;;;;;;;14.87;68.61;99378.66;4913416;28;20205;-50
2023/03/23 01:05:51;;;;;;;0.40;0.30;;;;;;;14.80;68.54;99377.28;4907145;28;20209;-50
2023/03/23 01:08:18;;;;;;;0.30;0.30;;;;;;;14.86;68.04;99384.09;4905305;29;20493;-50
2023/03/23 01:10:45;;;;;;;0.40;0.30;;;;;;;14.89;67.23;99394.59;4913132;29;20493;-50
2023/03/23 01:13:10;;;;;;;0.40;0.30;;;;;;;14.93;66.66;99397.00;4908469;28;20469;-50
2023/03/23 01:15:36;;;;;;;0.50;0.47;;;;;;;15.02;66.47;99388.41;4912767;29;20504;-50
2023/03/23 01:18:02;;;;;;;2.57;0.30;;;;;;;15.06;66.32;99381.91;4913143;28;20244;-50
2023/03/23 01:20:31;;;;;;;0.50;0.40;;;;;;;15.25;65.27;99370.06;4912686;29;20659;-49
2023/03/23 01:23:02;;;;;;;0.30;0.20;;;;;;;15.29;64.88;99368.91;4913071;29;20522;-50
2023/03/23 01:25:30;;;;;;;0.63;0.37;;;;;;;15.28;65.13;99375.22;4888825;29;20984;-49
2023/03/23 01:27:56;;;;;;;0.80;0.50;;;;;;;15.28;64.95;99364.53;4913099;28;20596;-50
2023/03/23 01:30:21;;;;;;;0.63;0.40;;;;;;;15.14;65.23;99376.09;4912782;28;20472;-49
2023/03/23 01:32:47;;;;;;;0.40;0.30;;;;;;;15.24;64.94;99371.91;4912777;28;20528;-49
2023/03/23 01:35:13;;;;;;;1.20;0.80;;;;;;;15.43;65.66;99365.38;4912850;28;20321;-50
2023/03/23 01:37:39;;;;;;;0.50;0.37;;;;;;;15.22;68.01;99360.44;4912895;29;20248;-50
2023/03/23 01:40:06;;;;;;;1.67;0.33;;;;;;;15.18;68.32;99358.00;4912949;29;20906;-50
2023/03/23 01:42:33;;;;;;;0.40;0.30;;;;;;;15.11;68.74;99354.88;4916009;29;20472;-50
2023/03/23 01:45:19;;;;;;;0.53;0.53;;;;;;;15.26;67.77;99358.41;4915945;29;20547;-51
2023/03/23 01:47:47;;;;;;;2.03;0.50;;;;;;;15.14;68.09;99352.00;4915582;28;20464;-50
2023/03/23 01:50:12;;;;;;;0.40;0.30;;;;;;;15.05;68.13;99353.41;4914864;29;20516;-51
2023/03/23 01:52:39;;;;;;;0.50;0.30;;;;;;;15.13;67.30;99352.09;4915876;28;20934;-50
2023/03/23 01:55:05;;;;;;;0.40;0.30;;;;;;;15.13;67.72;99349.41;4916004;28;20236;-50
2023/03/23 01:57:31;;;;;;;0.40;0.30;;;;;;;15.17;67.23;99353.63;4915692;29;21020;-50
2023/03/23 02:00:00;;;;;;;0.47;0.30;;;;;;;15.21;67.22;99349.78;4915635;28;21057;-50
2023/03/23 02:02:27;;;;;;;0.50;0.40;;;;;;;15.27;66.87;99352.09;4914276;29;20522;-49
2023/03/23 02:04:57;;;;;;;0.50;0.40;;;;;;;15.30;67.38;99351.91;4915718;29;20827;-50
2023/03/23 02:07:23;;;;;;;1.27;0.80;;;;;;;15.19;67.91;99347.22;4903256;28;20465;-50
2023/03/23 02:09:50;;;;;;;0.90;0.40;;;;;;;15.21;67.33;99345.28;4915683;29;20480;-50
2023/03/23 02:12:15;;;;;;;0.60;0.37;;;;;;;15.09;68.88;99338.91;4910773;28;20559;-50
2023/03/23 02:14:41;;;;;;;1.90;0.40;;;;;;;15.05;71.00;99345.38;4915437;29;20907;-50
2023/03/23 02:17:14;;;;;;;0.43;0.30;;;;;;;14.94;71.62;99341.66;4915711;29;20237;-50
2023/03/23 02:20:06;;;;;;;0.40;0.30;;;;;;;14.94;73.70;99331.84;4915582;28;20248;-50
2023/03/23 02:23:02;;;;;;;0.50;0.40;;;;;;;15.01;73.56;99332.31;4897141;29;20894;-50
2023/03/23 02:25:30;;;;;;;0.50;0.30;;;;;;;15.16;73.43;99330.47;4892096;29;20529;-50
2023/03/23 02:28:15;;;;;;;0.40;0.30;;;;;;;14.89;74.68;99328.56;4915348;28;20500;-50
2023/03/23 02:30:48;;;;;;;0.50;0.43;;;;;;;15.07;74.75;99323.88;4915246;29;20994;-50
2023/03/23 02:33:40;;;;;;;0.47;0.30;;;;;;;14.88;75.61;99323.31;4913907;29;20493;-50
2023/03/23 02:36:24;;;;;;;0.40;0.30;;;;;;;14.78;76.02;99325.69;4915325;29;20446;-49
2023/03/23 02:39:00;;;;;;;1.80;1.03;;;;;;;15.06;74.94;99328.38;4915314;29;20458;-51
2023/03/23 02:41:31;;;;;;;0.80;0.73;;;;;;;15.06;75.11;99316.81;4915156;29;20499;-50
2023/03/23 02:43:58;;;;;;;0.60;0.43;;;;;;;14.95;74.55;99325.53;4913900;29;20476;-51
2023/03/23 02:46:25;;;;;;;0.40;0.27;;;;;;;14.97;74.75;99323.63;4915026;29;20896;-49
2023/03/23 02:48:55;;;;;;;0.40;0.30;;;;;;;15.03;75.04;99325.91;4915070;28;20489;-50
2023/03/23 02:51:23;;;;;;;0.60;0.43;;;;;;;14.86;75.13;99310.03;4890744;29;20484;-50
2023/03/23 02:53:52;;;;;;;0.53;0.53;;;;;;;15.17;74.68;99308.97;4914219;28;20540;-50
2023/03/23 02:56:19;;;;;;;0.60;0.60;;;;;;;14.91;75.64;99307.06;4914874;29;20453;-50
2023/03/23 02:58:45;;;;;;;0.90;0.33;;;;;;;14.87;75.17;99305.53;4914676;29;20574;-50
2023/03/23 03:01:36;;;;;;;0.43;0.30;;;;;;;14.87;75.41;99300.19;4914782;29;20493;-50
2023/03/23 03:04:15;;;;;;;0.60;0.50;;;;;;;14.86;76.01;99299.34;4929521;28;20224;-50
2023/03/23 03:06:50;;;;;;;0.50;0.40;;;;;;;14.68;78.34;99296.00;4902319;28;20454;-50
2023/03/23 03:09:36;;;;;;;0.40;0.30;;;;;;;14.85;77.97;99300.28;4890908;29;20480;-50
2023/03/23 03:12:10;;;;;;;0.60;0.40;;;;;;;14.76;78.52;99295.50;4909774;29;20473;-49
2023/03/23 03:15:10;;;;;;;0.40;0.30;;;;;;;14.84;77.71;99292.38;4914640;29;20539;-49
2023/03/23 03:17:43;;;;;;;0.63;0.47;;;;;;;14.71;78.87;99294.94;4895009;29;20461;-49
2023/03/23 03:20:10;;;;;;;0.40;0.30;;;;;;;14.54;80.57;99311.16;4913112;29;21082;-50
2023/03/23 03:22:41;;;;;;;0.70;0.60;;;;;;;14.50;80.98;99305.97;4914636;29;20465;-49
2023/03/23 03:25:09;;;;;;;0.50;0.40;;;;;;;14.45;82.27;99299.19;4914408;29;20472;-49
2023/03/23 03:27:34;;;;;;;0.80;0.50;;;;;;;14.37;82.94;99294.25;4913478;28;20465;-49
2023/03/23 03:30:04;;;;;;;0.63;0.43;;;;;;;14.30;84.41;99298.25;4897294;29;20915;-50
2023/03/23 03:32:38;;;;;;;0.40;0.30;;;;;;;14.19;86.98;99304.25;4913217;28;20298;-51
2023/03/23 03:35:05;;;;;;;0.60;0.40;;;;;;;13.99;93.18;99301.03;4914322;29;20493;-49
2023/03/23 03:37:39;;;;;;;0.40;0.30;;;;;;;13.91;93.65;99307.69;4914373;29;20564;-51
2023/03/23 03:40:12;;;;;;;0.53;0.50;;;;;;;13.83;94.73;99314.41;4890493;28;20481;-49
2023/03/23 03:42:38;;;;;;;0.70;0.70;;;;;;;13.75;95.75;99319.34;4913074;28;20469;-50
2023/03/23 03:45:05;;;;;;;0.50;0.40;;;;;;;13.74;94.22;99317.63;4914377;28;20461;-49
2023/03/23 03:47:31;;;;;;;4.93;0.40;;;;;;;13.77;94.65;99320.09;4914091;29;20458;-51
2023/03/23 03:49:56;;;;;;;0.63;0.40;;;;;;;13.80;92.13;99322.59;4914251;29;20483;-49
2023/03/23 03:52:21;;;;;;;0.60;0.40;;;;;;;13.81;90.40;99317.16;4913969;29;20621;-49
2023/03/23 03:54:47;;;;;;;0.40;0.30;;;;;;;14.03;87.36;99327.47;4913886;29;20269;-48
2023/03/23 03:57:12;;;;;;;0.40;0.30;;;;;;;14.32;84.85;99323.09;4914148;28;20244;-49
2023/03/23 03:59:38;;;;;;;6.53;0.53;;;;;;;14.31;83.97;99318.69;4912851;29;20257;-50
2023/03/23 04:02:03;;;;;;;2.10;0.40;;;;;;;14.28;82.62;99321.56;4913925;29;20538;-49
2023/03/23 04:04:29;;;;;;;0.70;0.70;;;;;;;14.48;82.70;99329.28;4912964;28;20209;-50
2023/03/23 04:06:54;;;;;;;0.50;0.30;;;;;;;14.50;81.93;99327.34;4900136;28;20217;-49
2023/03/23 04:09:21;;;;;;;0.60;0.60;;;;;;;14.46;82.90;99346.38;4913786;28;20236;-49
2023/03/23 04:11:46;;;;;;;1.57;0.40;;;;;;;14.43;81.80;99336.69;4908524;29;20265;-49
2023/03/23 04:14:12;;;;;;;3.70;1.10;;;;;;;14.32;82.99;99336.47;4913718;29;21002;-49
2023/03/23 04:16:37;;;;;;;1.50;0.50;;;;;;;14.45;82.08;99325.94;4913785;29;20215;-49
2023/03/23 04:19:03;;;;;;;2.50;0.30;;;;;;;14.26;82.54;99334.16;4912457;28;20263;-50
2023/03/23 04:21:29;;;;;;;0.50;0.30;;;;;;;14.33;82.84;99335.50;4913790;29;20221;-50
2023/03/23 04:23:58;;;;;;;1.93;0.60;;;;;;;14.38;82.20;99344.09;4913712;29;20209;-49
2023/03/23 04:26:26;;;;;;;0.50;0.40;;;;;;;14.29;82.25;99351.81;4913791;29;20278;-49
2023/03/23 04:28:51;;;;;;;1.13;0.40;;;;;;;14.40;82.40;99357.41;4913471;28;20465;-50
2023/03/23 04:31:17;;;;;;;0.60;0.40;;;;;;;14.39;82.61;99351.19;4913530;28;20512;-49
2023/03/23 04:33:42;;;;;;;0.80;0.50;;;;;;;14.36;82.43;99346.00;4913441;29;20593;-49
2023/03/23 04:36:08;;;;;;;1.00;0.77;;;;;;;14.27;83.14;99351.91;4913423;29;20616;-48
2023/03/23 04:38:34;;;;;;;0.40;0.30;;;;;;;14.19;84.08;99348.81;4913520;28;20217;-49
2023/03/23 04:41:01;;;;;;;0.40;0.33;;;;;;;14.34;83.77;99345.25;4913470;29;20244;-49
2023/03/23 04:43:28;;;;;;;0.47;0.40;;;;;;;14.34;83.91;99339.91;4912508;28;20221;-49
2023/03/23 04:45:58;;;;;;;0.40;0.33;;;;;;;14.21;84.89;99345.09;4913281;28;20495;-48
2023/03/23 04:48:29;;;;;;;0.70;0.47;;;;;;;14.20;85.34;99356.75;4913316;29;20989;-49
2023/03/23 04:50:55;;;;;;;0.60;0.60;;;;;;;14.26;84.96;99349.34;4913113;28;20485;-49
2023/03/23 04:53:21;;;;;;;3.70;0.93;;;;;;;14.24;85.48;99350.25;4913286;29;20514;-48
2023/03/23 04:55:48;;;;;;;0.87;0.57;;;;;;;14.10;85.95;99352.88;4911911;29;20244;-50
2023/03/23 04:58:15;;;;;;;0.73;0.70;;;;;;;14.04;86.65;99352.38;4912276;29;20491;-49
2023/03/23 05:00:43;;;;;;;1.23;0.80;;;;;;;14.12;87.27;99355.50;4912912;29;20492;-49
2023/03/23 05:03:09;;;;;;;0.60;0.40;;;;;;;14.06;87.45;99362.03;4913022;29;20460;-48
2023/03/23 05:05:36;;;;;;;0.70;0.70;;;;;;;13.99;87.92;99352.66;4908728;28;20637;-49
2023/03/23 05:08:01;;;;;;;2.20;0.63;;;;;;;13.97;88.57;99359.03;4905030;29;20567;-49
2023/03/23 05:10:27;;;;;;;2.60;0.77;;;;;;;14.11;88.58;99364.44;4912241;29;20311;-50
2023/03/23 05:12:53;;;;;;;0.80;0.40;;;;;;;13.92;88.99;99360.16;4908632;28;20304;-49
2023/03/23 05:15:19;;;;;;;0.97;0.77;;;;;;;14.06;88.95;99355.84;4913318;29;20650;-50
2023/03/23 05:17:44;;;;;;;0.67;0.50;;;;;;;14.09;89.33;99364.53;4916258;29;20568;-49
2023/03/23 05:20:12;;;;;;;0.70;0.60;;;;;;;14.02;89.31;99356.97;4916264;29;20227;-49
2023/03/23 05:22:38;;;;;;;1.30;0.40;;;;;;;14.04;89.16;99358.59;4916518;29;20241;-50
2023/03/23 05:25:05;;;;;;;0.50;0.43;;;;;;;14.14;89.56;99351.78;4916273;28;20453;-50
2023/03/23 05:27:32;;;;;;;0.57;0.37;;;;;;;14.06;89.77;99355.84;4916317;28;20458;-50
2023/03/23 05:29:58;;;;;;;0.67;0.43;;;;;;;13.92;90.28;99368.16;4916016;28;20484;-50
2023/03/23 05:32:30;;;;;;;0.60;0.43;;;;;;;13.86;91.04;99363.19;4915220;29;20477;-50
2023/03/23 05:35:00;;;;;;;0.83;0.47;;;;;;;13.86;90.86;99365.88;4915895;28;20492;-50
2023/03/23 05:37:31;;;;;;;0.60;0.57;;;;;;;13.85;91.91;99369.50;4916297;29;20465;-49
2023/03/23 05:40:01;;;;;;;0.50;0.40;;;;;;;13.87;91.70;99372.06;4916493;29;20476;-50
2023/03/23 05:42:27;;;;;;;1.20;1.10;;;;;;;13.99;91.44;99371.38;4915903;29;20460;-50
2023/03/23 05:44:52;;;;;;;0.60;0.47;;;;;;;13.89;92.27;99375.50;4915992;28;20519;-49
2023/03/23 05:47:18;;;;;;;0.63;0.50;;;;;;;13.94;91.98;99386.78;4915765;28;20457;-50
2023/03/23 05:49:43;;;;;;;0.93;0.60;;;;;;;13.98;92.92;99383.00;4915949;28;20233;-49
2023/03/23 05:52:09;;;;;;;1.20;0.87;;;;;;;13.82;92.70;99374.13;4915699;29;20219;-49
2023/03/23 05:54:34;;;;;;;0.60;0.40;;;;;;;13.81;93.30;99383.94;4915938;29;20257;-49
2023/03/23 05:57:00;;;;;;;0.40;0.30;;;;;;;13.79;94.17;99368.94;4915754;29;20231;-49
2023/03/23 05:59:25;;;;;;;1.17;0.70;;;;;;;13.91;93.83;99379.81;4915623;28;20719;-51
2023/03/23 06:01:51;;;;;;;1.00;0.93;;;;;;;13.74;94.46;99379.06;4915533;28;20851;-50
2023/03/23 06:04:16;;;;;;;0.80;0.67;;;;;;;13.68;95.07;99382.03;4914757;28;20221;-51
2023/03/23 06:06:43;;;;;;;1.87;0.80;;;;;;;13.88;94.84;99382.66;4902990;28;20991;-51
2023/03/23 06:09:09;;;;;;;0.50;0.50;;;;;;;13.89;94.09;99386.19;4914272;29;20671;-50
2023/03/23 06:11:35;;;;;;;0.60;0.50;;;;;;;13.67;95.54;99391.00;4910916;29;20498;-50
2023/03/23 06:14:00;;;;;;;0.50;0.30;;;;;;;13.74;95.33;99387.91;4915412;29;20489;-50
2023/03/23 06:16:26;;;;;;;0.60;0.50;;;;;;;13.82;96.17;99406.16;4915293;28;20213;-50
2023/03/23 06:18:51;;;;;;;0.87;0.40;;;;;;;13.83;95.02;99405.22;4914187;28;20224;-50
2023/03/23 06:21:21;;;;;;;0.40;0.40;;;;;;;13.82;95.57;99395.50;4915627;28;20229;-50
2023/03/23 06:23:47;;;;;;;1.37;0.50;;;;;;;13.90;94.68;99387.91;4891488;29;20260;-50
2023/03/23 06:26:16;;;;;;;1.53;0.93;;;;;;;13.74;95.50;99397.75;4915179;29;20457;-50
2023/03/23 06:28:42;;;;;;;3.13;1.80;;;;;;;13.93;94.84;99406.44;4913443;29;20469;-50
2023/03/23 06:31:08;;;;;;;5.50;0.93;;;;;;;14.03;94.17;99409.47;4914998;29;20554;-51
2023/03/23 06:33:35;;;;;;;1.00;0.80;;;;;;;14.01;95.05;99416.69;4915459;29;20540;-50
2023/03/23 06:36:02;;;;;;;4.27;1.17;;;;;;;13.93;95.43;99415.31;4913729;29;20612;-50
2023/03/23 06:38:27;;;;;;;2.40;0.40;;;;;;;13.93;95.64;99411.78;4915496;29;20470;-50
2023/03/23 06:40:54;;;;;;;0.80;0.70;;;;;;;14.10;94.72;99410.81;4915321;29;20488;-50
2023/03/23 06:43:19;;;;;;;0.70;0.67;;;;;;;14.12;94.65;99406.28;4915194;29;20217;-50
2023/03/23 06:45:45;;;;;;;0.87;0.70;;;;;;;13.89;96.13;99408.44;4914913;29;20468;-51
2023/03/23 06:48:10;;;;;;;0.87;0.87;;;;;;;14.09;95.26;99409.97;4915125;29;20500;-50
2023/03/23 06:50:36;;;;;;;0.87;0.50;;;;;;;14.10;95.45;99408.13;4914984;29;20283;-50
2023/03/23 06:53:01;;;;;;;0.80;0.77;;;;;;;14.18;94.69;99408.56;4913908;28;20236;-49
2023/03/23 06:55:27;;;;;;;4.73;0.80;;;;;;;14.22;94.48;99405.63;4914871;28;20233;-50
2023/03/23 06:57:52;;;;;;;0.77;0.60;;;;;;;14.27;94.56;99413.41;4914877;29;20708;-51
2023/03/23 07:00:18;;;;;;;0.50;0.40;;;;;;;14.50;94.85;99404.06;4913572;28;20249;-52
2023/03/23 07:02:44;;;;;;;0.67;0.40;;;;;;;14.20;94.73;99415.56;4915426;28;20218;-50
2023/03/23 07:05:10;;;;;;;0.60;0.40;;;;;;;14.24;94.73;99409.06;4902596;28;20626;-50
2023/03/23 07:07:37;;;;;;;1.20;1.10;;;;;;;14.23;95.40;99404.69;4903015;29;20847;-51
2023/03/23 07:10:04;;;;;;;0.87;0.87;;;;;;;14.14;95.16;99410.56;4914753;29;20477;-50
2023/03/23 07:12:30;;;;;;;1.33;0.60;;;;;;;14.20;95.29;99412.88;4909091;28;20443;-50
2023/03/23 07:14:55;;;;;;;0.70;0.60;;;;;;;14.43;94.07;99414.22;4913204;29;20521;-50
2023/03/23 07:17:21;;;;;;;0.53;0.53;;;;;;;14.25;94.53;99425.97;4914891;29;20217;-52
2023/03/23 07:19:46;;;;;;;1.13;0.73;;;;;;;14.52;93.97;99432.44;4914712;29;20264;-50
2023/03/23 07:22:12;;;;;;;1.03;0.50;;;;;;;14.45;93.86;99433.75;4914662;28;20217;-50
2023/03/23 07:24:37;;;;;;;0.80;0.80;;;;;;;14.28;94.89;99425.81;4914493;28;20221;-50
2023/03/23 07:27:03;;;;;;;0.80;0.57;;;;;;;14.29;94.74;99422.19;4914639;28;20213;-51
2023/03/23 07:29:28;;;;;;;0.97;0.87;;;;;;;14.37;93.96;99421.72;4914274;29;20279;-50
2023/03/23 07:31:54;;;;;;;0.60;0.50;;;;;;;14.58;93.29;99430.34;4914560;29;20527;-50
2023/03/23 07:34:20;;;;;;;0.80;0.50;;;;;;;14.39;92.89;99435.88;4914424;29;20248;-52
2023/03/23 07:36:46;;;;;;;0.63;0.40;;;;;;;14.56;92.79;99438.47;4914577;29;20260;-50
2023/03/23 07:39:12;;;;;;;1.03;0.50;;;;;;;14.65;92.75;99432.56;4914545;28;20283;-51
2023/03/23 07:41:38;;;;;;;1.07;0.97;;;;;;;14.52;92.93;99435.09;4913337;28;20468;-52
2023/03/23 07:44:05;;;;;;;1.27;0.47;;;;;;;14.44;93.03;99445.41;4914080;28;20473;-51
2023/03/23 07:46:31;;;;;;;0.60;0.50;;;;;;;14.77;92.16;99447.91;4914654;28;20217;-50
2023/03/23 07:48:56;;;;;;;1.10;1.00;;;;;;;14.58;91.64;99451.75;4912939;28;20967;-50
2023/03/23 07:51:22;;;;;;;0.70;0.50;;;;;;;14.54;92.16;99459.09;4914073;29;20221;-50
2023/03/23 07:53:49;;;;;;;0.93;0.60;;;;;;;14.55;91.74;99446.59;4914486;28;20217;-50
2023/03/23 07:56:18;;;;;;;1.90;0.60;;;;;;;14.64;91.32;99451.38;4913995;28;20513;-50
2023/03/23 07:58:45;;;;;;;0.40;0.40;;;;;;;14.59;91.52;99450.81;4914004;29;20472;-50
2023/03/23 08:01:10;;;;;;;0.77;0.50;;;;;;;14.74;90.97;99457.91;4913964;28;20559;-50
2023/03/23 08:03:37;;;;;;;1.43;0.83;;;;;;;14.65;90.97;99450.44;4913789;29;20967;-50
2023/03/23 08:06:04;;;;;;;0.50;0.40;;;;;;;14.73;91.12;99467.75;4906638;28;20206;-50
2023/03/23 08:08:30;;;;;;;0.70;0.60;;;;;;;14.91;90.79;99464.94;4909200;29;20511;-50
2023/03/23 08:10:55;;;;;;;0.53;0.30;;;;;;;14.68;90.67;99471.69;4913807;28;20861;-50
2023/03/23 08:13:21;;;;;;;0.53;0.50;;;;;;;14.87;90.70;99469.63;4909051;29;20559;-50
2023/03/23 08:15:46;;;;;;;0.57;0.50;;;;;;;14.62;91.24;99472.88;4913920;29;20244;-50
2023/03/23 08:18:12;;;;;;;0.53;0.40;;;;;;;14.65;91.04;99478.03;4913654;29;20235;-50
2023/03/23 08:20:38;;;;;;;1.00;0.50;;;;;;;14.74;91.11;99487.34;4912722;28;20241;-50
2023/03/23 08:23:03;;;;;;;1.43;0.40;;;;;;;14.79;90.69;99487.94;4913480;29;20579;-50
2023/03/23 08:25:31;;;;;;;0.50;0.40;;;;;;;14.72;90.45;99483.91;4912625;28;20219;-50
2023/03/23 08:27:57;;;;;;;2.50;0.90;;;;;;;14.86;89.58;99483.97;4912672;29;20213;-50
2023/03/23 08:30:24;;;;;;;0.67;0.60;;;;;;;14.96;89.32;99487.81;4913872;29;20489;-50
2023/03/23 08:32:50;;;;;;;0.60;0.60;;;;;;;14.90;89.56;99492.66;4912636;28;20540;-51
2023/03/23 08:35:17;;;;;;;0.60;0.50;;;;;;;15.04;88.59;99485.53;4913579;29;20577;-50
2023/03/23 08:37:42;;;;;;;1.63;0.97;;;;;;;15.08;88.42;99491.59;4912490;28;20473;-50
2023/03/23 08:40:10;;;;;;;6.73;0.60;;;;;;;15.07;88.47;99490.69;4912112;29;20999;-50
2023/03/23 08:42:41;;;;;;;1.20;0.70;;;;;;;15.11;87.73;99484.22;4913508;28;20224;-50
2023/03/23 08:45:08;;;;;;;0.70;0.50;;;;;;;15.08;85.91;99492.44;4912709;29;20457;-50
2023/03/23 08:47:35;;;;;;;0.50;0.47;;;;;;;15.20;83.22;99498.84;4912222;29;20473;-50
2023/03/23 08:50:02;;;;;;;0.53;0.50;;;;;;;15.31;83.04;99485.69;4912679;28;20477;-50
2023/03/23 08:52:29;;;;;;;0.50;0.30;;;;;;;15.30;81.75;99478.59;4913217;28;20464;-51
2023/03/23 08:54:55;;;;;;;0.70;0.60;;;;;;;15.56;81.58;99493.06;4913201;29;20552;-50
2023/03/23 08:57:20;;;;;;;0.80;0.77;;;;;;;15.63;79.43;99501.66;4913453;29;20496;-50
2023/03/23 08:59:46;;;;;;;1.10;1.00;;;;;;;15.72;78.67;99498.38;4913269;28;20613;-51
2023/03/23 09:02:11;;;;;;;0.60;0.50;;;;;;;15.63;79.29;99498.97;4913269;29;20221;-50
2023/03/23 09:04:38;;;;;;;0.60;0.50;;;;;;;15.74;79.37;99509.00;4912325;28;20220;-50
2023/03/23 09:07:04;;;;;;;1.30;0.50;;;;;;;15.70;77.32;99500.28;4900625;28;20216;-50
2023/03/23 09:09:29;;;;;;;0.53;0.40;;;;;;;15.79;78.72;99505.09;4912922;29;21014;-50
2023/03/23 09:11:55;;;;;;;2.00;0.70;;;;;;;15.85;79.93;99515.41;4908748;28;20224;-50
2023/03/23 09:14:20;;;;;;;0.60;0.50;;;;;;;15.88;79.74;99514.34;4913181;29;20244;-50
2023/03/23 09:16:46;;;;;;;1.07;0.63;;;;;;;15.89;79.45;99508.88;4913076;28;20304;-50
2023/03/23 09:19:12;;;;;;;0.60;0.43;;;;;;;15.86;79.13;99509.09;4913001;28;20237;-49
2023/03/23 09:21:38;;;;;;;0.50;0.40;;;;;;;15.92;78.79;99514.09;4912876;29;21013;-51
2023/03/23 09:24:04;;;;;;;0.70;0.70;;;;;;;16.13;78.95;99514.53;4912935;29;20464;-50
2023/03/23 09:26:31;;;;;;;1.23;0.50;;;;;;;15.81;80.41;99508.53;4913006;29;20551;-51
2023/03/23 09:28:57;;;;;;;0.70;0.50;;;;;;;15.72;81.82;99518.94;4913027;28;20874;-49
2023/03/23 09:31:26;;;;;;;0.70;0.67;;;;;;;15.84;81.65;99511.00;4912835;29;20481;-49
2023/03/23 09:33:52;;;;;;;0.87;0.73;;;;;;;15.69;83.80;99522.69;4912823;29;20462;-50
2023/03/23 09:36:21;;;;;;;0.90;0.90;;;;;;;15.61;85.46;99519.59;4912652;28;20461;-50
2023/03/23 09:38:47;;;;;;;0.77;0.37;;;;;;;15.54;85.61;99518.25;4911832;28;20213;-50
2023/03/23 09:41:39;;;;;;;0.50;0.37;;;;;;;15.68;85.00;99504.88;4911376;29;20858;-50
2023/03/23 09:44:16;;;;;;;0.70;0.57;;;;;;;15.63;84.59;99521.25;4912782;29;20826;-50
2023/03/23 09:47:04;;;;;;;0.70;0.50;;;;;;;15.48;85.60;99510.56;4911411;29;20703;-50
2023/03/23 09:49:45;;;;;;;0.57;0.40;;;;;;;15.66;85.86;99525.56;4911173;28;21022;-50
2023/03/23 09:52:14;;;;;;;1.13;0.50;;;;;;;15.82;85.18;99522.78;4912601;28;20548;-50
2023/03/23 09:54:43;;;;;;;0.80;0.70;;;;;;;15.70;84.96;99519.91;4912607;29;20496;-50
2023/03/23 09:57:17;;;;;;;0.50;0.50;;;;;;;15.60;83.81;99518.75;4912517;29;20519;-51
2023/03/23 10:00:09;;;;;;;0.90;0.60;;;;;;;15.55;82.69;99520.81;4911361;29;20509;-50
2023/03/23 10:03:14;;;;;;;0.60;0.50;;;;;;;15.41;83.04;99521.66;4912353;29;20473;-50
2023/03/23 10:05:47;;;;;;;0.50;0.40;;;;;;;15.44;84.06;99520.63;4907414;28;20505;-50
2023/03/23 10:08:19;;;;;;;1.17;0.40;;;;;;;15.58;84.82;99526.00;4908983;29;20540;-51
2023/03/23 10:11:06;;;;;;;5.13;0.70;;;;;;;15.45;85.55;99530.38;4915540;29;20488;-50
2023/03/23 10:14:04;;;;;;;0.43;0.40;;;;;;;15.46;86.66;99531.22;4908574;29;20461;-50
2023/03/23 10:16:37;;;;;;;7.93;0.73;;;;;;;15.46;87.42;99531.22;4915679;29;20490;-50
2023/03/23 10:19:16;;;;;;;0.70;0.40;;;;;;;15.34;87.14;99530.16;4914290;28;20474;-50
2023/03/23 10:21:48;;;;;;;0.50;0.50;;;;;;;15.10;88.29;99540.53;4915418;29;20492;-50
2023/03/23 10:24:21;;;;;;;0.87;0.53;;;;;;;15.27;87.56;99540.38;4915321;28;20460;-50
2023/03/23 10:27:05;;;;;;;0.90;0.73;;;;;;;15.28;88.28;99538.56;4915489;28;20472;-50
2023/03/23 10:29:36;;;;;;;0.47;0.33;;;;;;;15.25;87.55;99539.63;4915272;28;20491;-51
2023/03/23 10:32:09;;;;;;;1.30;0.60;;;;;;;15.45;87.66;99533.03;4915593;28;20466;-50
2023/03/23 10:34:44;;;;;;;0.40;0.30;;;;;;;15.43;86.34;99526.94;4915112;28;20493;-50
2023/03/23 10:37:18;;;;;;;0.40;0.40;;;;;;;15.62;85.82;99538.28;4915522;29;20536;-50
2023/03/23 10:39:55;;;;;;;0.80;0.40;;;;;;;15.76;85.17;99533.88;4913798;29;20485;-50
2023/03/23 10:42:26;;;;;;;0.50;0.40;;;;;;;15.76;84.76;99534.75;4915372;29;20540;-50
2023/03/23 10:44:52;;;;;;;0.43;0.40;;;;;;;15.83;83.69;99528.06;4891464;28;20485;-50
2023/03/23 10:47:18;;;;;;;0.40;0.30;;;;;;;15.97;83.28;99533.41;4914910;29;20465;-50
2023/03/23 10:49:46;;;;;;;0.40;0.30;;;;;;;16.14;82.23;99532.34;4914984;29;20488;-50
2023/03/23 10:52:37;;;;;;;15.43;0.93;;;;;;;15.99;82.10;99530.63;4914988;29;20270;-50
2023/03/23 10:55:03;;;;;;;0.80;0.43;;;;;;;16.05;82.20;99538.31;4915005;28;20906;-50
2023/03/23 10:57:31;;;;;;;0.40;0.40;;;;;;;16.13;80.51;99521.72;4914808;29;20529;-50
2023/03/23 11:00:06;;;;;;;0.40;0.30;;;;;;;15.83;81.44;99522.69;4914887;29;20904;-50
2023/03/23 11:02:39;;;;;;;0.30;0.20;;;;;;;16.04;80.83;99530.34;4913861;29;20531;-50
2023/03/23 11:05:32;;;;;;;0.40;0.40;;;;;;;16.00;80.80;99530.53;4913650;29;20506;-50
2023/03/23 11:08:01;;;;;;;0.63;0.50;;;;;;;15.74;81.82;99538.47;4887144;29;20469;-50
2023/03/23 11:10:38;;;;;;;0.40;0.30;;;;;;;15.66;83.03;99538.97;4915193;28;20490;-54
2023/03/23 11:13:07;;;;;;;0.40;0.40;;;;;;;15.67;83.13;99549.59;4909907;29;20510;-53
2023/03/23 11:15:39;;;;;;;3.80;0.53;;;;;;;15.63;83.57;99557.91;4914709;28;21002;-53
2023/03/23 11:18:09;;;;;;;0.60;0.30;;;;;;;15.68;84.25;99553.97;4914932;29;20572;-52
2023/03/23 11:20:39;;;;;;;0.50;0.37;;;;;;;15.72;84.79;99553.78;4914737;28;20820;-53
2023/03/23 11:23:26;;;;;;;0.30;0.20;;;;;;;15.79;84.78;99564.03;4914614;29;20458;-53
2023/03/23 11:25:58;;;;;;;0.50;0.47;;;;;;;16.06;84.34;99564.16;4914584;29;20933;-53
2023/03/23 11:28:34;;;;;;;0.40;0.30;;;;;;;16.20;83.42;99568.66;4914595;29;20453;-53
2023/03/23 11:31:03;;;;;;;0.40;0.30;;;;;;;15.98;83.85;99571.78;4914406;29;20477;-53
2023/03/23 11:33:30;;;;;;;0.40;0.30;;;;;;;16.31;83.31;99563.47;4889901;29;20465;-52
2023/03/23 11:35:57;;;;;;;0.40;0.30;;;;;;;15.98;83.20;99556.56;4914109;29;20874;-52
2023/03/23 11:38:27;;;;;;;0.40;0.30;;;;;;;16.00;84.34;99553.78;4914632;28;20472;-53
2023/03/23 11:40:52;;;;;;;0.50;0.40;;;;;;;16.07;84.36;99554.28;4914326;29;20492;-54
2023/03/23 11:43:24;;;;;;;0.40;0.30;;;;;;;15.98;84.73;99551.22;4913414;29;20465;-52